createdAt,value
2023-04-15T00:01:37.373Z,31.47
2023-04-15T00:04:10.510Z,31.42
2023-04-15T00:06:43.263Z,30.81
2023-04-15T00:09:16.505Z,31.02
2023-04-15T00:11:51.338Z,31.52
2023-04-15T00:14:26.663Z,31.51
2023-04-15T00:16:59.127Z,31.08
2023-04-15T00:19:33.038Z,30.99
2023-04-15T00:22:06.337Z,31.46
2023-04-15T00:24:39.470Z,31.87
2023-04-15T00:27:11.976Z,31.51
2023-04-15T00:29:46.225Z,31.90
2023-04-15T00:32:19.192Z,31.43
2023-04-15T00:34:53.012Z,30.97
2023-04-15T00:37:25.636Z,31.35
2023-04-15T00:39:58.711Z,31.97
2023-04-15T00:42:31.868Z,31.69
2023-04-15T00:45:07.610Z,31.79
2023-04-15T00:47:43.230Z,31.79
2023-04-15T00:50:16.374Z,31.25
2023-04-15T00:52:49.650Z,31.27
2023-04-15T00:55:23.097Z,31.76
2023-04-15T00:57:56.397Z,31.66
2023-04-15T01:00:30.692Z,32.20
2023-04-15T01:03:04.641Z,31.98
2023-04-15T01:05:39.127Z,32.10
2023-04-15T01:08:12.051Z,32.44
2023-04-15T01:10:45.948Z,31.93
2023-04-15T01:13:18.544Z,31.60
2023-04-15T01:15:53.926Z,31.68
2023-04-15T01:18:27.410Z,31.53
2023-04-15T01:21:02.754Z,31.97
2023-04-15T01:23:38.703Z,31.51
2023-04-15T01:26:14.248Z,31.57
2023-04-15T01:28:47.419Z,32.40
2023-04-15T01:31:20.277Z,31.75
2023-04-15T01:33:53.365Z,32.12
2023-04-15T01:36:44.659Z,32.22
2023-04-15T01:39:17.366Z,32.03
2023-04-15T01:41:51.918Z,32.43
2023-04-15T01:44:26.588Z,32.59
2023-04-15T01:47:01.202Z,32.24
2023-04-15T01:49:34.974Z,32.55
2023-04-15T01:52:09.733Z,32.70
2023-04-15T01:54:43.517Z,32.03
2023-04-15T01:57:20.640Z,32.49
2023-04-15T01:59:54.313Z,32.00
2023-04-15T02:02:28.716Z,32.53
2023-04-15T02:05:04.987Z,32.25
2023-04-15T02:07:39.167Z,32.81
2023-04-15T02:10:13.745Z,32.66
2023-04-15T02:12:49.311Z,32.63
2023-04-15T02:15:23.079Z,32.09
2023-04-15T02:17:57.606Z,32.70
2023-04-15T02:20:32.315Z,31.93
2023-04-15T02:23:07.934Z,33.09
2023-04-15T02:25:42.257Z,32.91
2023-04-15T02:28:29.007Z,32.32
2023-04-15T02:31:06.678Z,32.50
2023-04-15T02:33:40.859Z,32.64
2023-04-15T02:36:15.028Z,32.39
2023-04-15T02:38:48.928Z,33.13
2023-04-15T02:41:27.757Z,33.01
2023-04-15T02:44:02.747Z,32.85
2023-04-15T02:46:37.830Z,32.41
2023-04-15T02:49:12.258Z,33.08
2023-04-15T02:51:49.660Z,33.34
2023-04-15T02:54:24.369Z,32.84
2023-04-15T02:56:58.196Z,33.24
2023-04-15T02:59:34.043Z,33.06
2023-04-15T03:02:08.640Z,32.66
2023-04-15T03:04:43.039Z,33.08
2023-04-15T03:07:18.466Z,32.84
2023-04-15T03:09:53.300Z,33.19
2023-04-15T03:12:26.901Z,33.31
2023-04-15T03:15:05.206Z,33.41
2023-04-15T03:17:44.025Z,33.03
2023-04-15T03:20:18.650Z,32.90
2023-04-15T03:22:52.425Z,32.69
2023-04-15T03:25:30.040Z,33.13
2023-04-15T03:28:04.081Z,33.17
2023-04-15T03:30:39.749Z,33.47
2023-04-15T03:33:13.378Z,32.78
2023-04-15T03:35:47.840Z,33.22
2023-04-15T03:38:21.931Z,33.44
2023-04-15T03:40:55.868Z,33.27
2023-04-15T03:43:29.800Z,33.27
2023-04-15T03:46:05.487Z,33.42
2023-04-15T03:48:39.398Z,32.91
2023-04-15T03:51:13.790Z,33.16
2023-04-15T03:53:47.613Z,33.72
2023-04-15T03:56:21.666Z,33.79
2023-04-15T03:58:55.921Z,33.94
2023-04-15T04:01:31.797Z,33.55
2023-04-15T04:04:05.948Z,33.75
2023-04-15T04:06:39.982Z,33.71
2023-04-15T04:09:14.199Z,33.28
2023-04-15T04:11:48.140Z,33.66
2023-04-15T04:14:27.106Z,33.25
2023-04-15T04:17:02.525Z,33.53
2023-04-15T04:19:36.515Z,33.13
2023-04-15T04:22:10.568Z,32.91
2023-04-15T04:24:44.175Z,32.76
2023-04-15T04:27:18.514Z,33.16
2023-04-15T04:29:52.098Z,33.21
2023-04-15T04:32:27.835Z,32.99
2023-04-15T04:35:01.756Z,33.13
2023-04-15T04:37:35.767Z,32.90
2023-04-15T04:40:10.930Z,32.76
2023-04-15T04:42:44.938Z,32.73
2023-04-15T04:45:18.981Z,32.92
2023-04-15T04:47:54.636Z,33.22
2023-04-15T04:50:28.388Z,32.95
2023-04-15T04:53:02.400Z,32.83
2023-04-15T04:55:39.630Z,32.55
2023-04-15T04:58:13.272Z,32.41
2023-04-15T05:00:47.384Z,32.17
2023-04-15T05:03:23.493Z,32.65
2023-04-15T05:05:57.763Z,32.88
2023-04-15T05:08:31.578Z,32.56
2023-04-15T05:11:05.843Z,32.26
2023-04-15T05:13:39.504Z,32.31
2023-04-15T05:16:13.680Z,33.08
2023-04-15T05:18:48.899Z,32.58
2023-04-15T05:21:23.014Z,31.70
2023-04-15T05:23:56.989Z,32.40
2023-04-15T05:26:30.998Z,32.04
2023-04-15T05:29:04.656Z,31.61
2023-04-15T05:31:39.025Z,32.55
2023-04-15T05:34:16.038Z,32.00
2023-04-15T05:36:49.942Z,32.03
2023-04-15T05:39:24.023Z,31.57
2023-04-15T05:41:58.586Z,31.03
2023-04-15T05:44:33.260Z,31.57
2023-04-15T05:47:08.403Z,31.40
2023-04-15T05:49:43.412Z,31.57
2023-04-15T05:52:17.923Z,31.10
2023-04-15T05:54:52.999Z,31.01
2023-04-15T05:57:27.518Z,31.32
2023-04-15T06:00:01.769Z,30.99
2023-04-15T06:02:43.932Z,30.87
2023-04-15T06:05:19.443Z,30.70
2023-04-15T06:07:53.635Z,31.01
2023-04-15T06:10:27.294Z,31.36
2023-04-15T06:13:01.535Z,31.54
2023-04-15T06:15:35.615Z,31.07
2023-04-15T06:18:11.470Z,31.31
2023-04-15T06:20:46.985Z,30.46
2023-04-15T06:23:20.614Z,30.70
2023-04-15T06:25:54.535Z,30.90
2023-04-15T06:28:28.446Z,31.00
2023-04-15T06:31:02.851Z,30.12
2023-04-15T06:33:36.788Z,30.19
2023-04-15T06:36:12.562Z,30.53
2023-04-15T06:38:46.282Z,30.56
2023-04-15T06:41:20.550Z,29.77
2023-04-15T06:43:55.893Z,29.88
2023-04-15T06:46:30.253Z,29.93
2023-04-15T06:49:04.145Z,30.02
2023-04-15T06:51:39.907Z,29.12
2023-04-15T06:54:13.614Z,28.93
2023-04-15T06:56:48.598Z,29.57
2023-04-15T06:59:22.384Z,30.27
2023-04-15T07:01:56.461Z,29.32
2023-04-15T07:04:30.951Z,30.37
2023-04-15T07:07:06.307Z,30.14
2023-04-15T07:09:40.153Z,29.74
2023-04-15T07:12:15.770Z,29.98
2023-04-15T07:14:49.718Z,30.26
2023-04-15T07:17:24.094Z,29.93
2023-04-15T07:19:57.966Z,29.77
2023-04-15T07:22:34.291Z,29.47
2023-04-15T07:25:09.332Z,29.99
2023-04-15T07:27:43.473Z,29.45
2023-04-15T07:30:17.710Z,29.96
2023-04-15T07:32:51.571Z,29.34
2023-04-15T07:35:26.831Z,28.99
2023-04-15T07:38:03.277Z,28.53
2023-04-15T07:40:36.949Z,29.93
2023-04-15T07:43:11.272Z,29.36
2023-04-15T07:45:45.318Z,29.24
2023-04-15T07:48:19.633Z,28.87
2023-04-15T07:50:53.662Z,29.52
2023-04-15T07:53:29.402Z,29.20
2023-04-15T07:56:03.084Z,28.83
2023-04-15T07:58:37.829Z,29.30
2023-04-15T08:01:11.872Z,29.49
2023-04-15T08:03:46.092Z,28.65
2023-04-15T08:06:20.158Z,29.13
2023-04-15T08:08:55.955Z,28.13
2023-04-15T08:11:29.865Z,29.14
2023-04-15T08:14:04.141Z,29.07
2023-04-15T08:16:38.118Z,28.21
2023-04-15T08:19:12.181Z,28.16
2023-04-15T08:21:46.937Z,28.76
2023-04-15T08:24:22.191Z,28.33
2023-04-15T08:26:58.114Z,29.40
2023-04-15T08:29:32.074Z,28.13
2023-04-15T08:32:06.990Z,28.11
2023-04-15T08:34:40.631Z,28.57
2023-04-15T08:37:14.952Z,27.74
2023-04-15T08:39:50.195Z,27.49
2023-04-15T08:42:31.495Z,27.43
2023-04-15T08:45:06.199Z,27.40
2023-04-15T08:47:41.590Z,27.73
2023-04-15T08:50:16.955Z,27.59
2023-04-15T08:52:54.133Z,28.19
2023-04-15T08:55:33.795Z,27.90
2023-04-15T08:58:08.476Z,27.21
2023-04-15T09:00:42.877Z,28.20
2023-04-15T09:03:18.258Z,27.82
2023-04-15T09:05:53.258Z,27.76
2023-04-15T09:08:27.391Z,27.51
2023-04-15T09:11:03.199Z,27.10
2023-04-15T09:13:37.700Z,27.38
2023-04-15T09:16:11.427Z,26.86
2023-04-15T09:18:45.546Z,27.34
2023-04-15T09:21:19.677Z,27.40
2023-04-15T09:23:58.727Z,27.61
2023-04-15T09:26:35.869Z,27.28
2023-04-15T09:29:13.840Z,27.77
2023-04-15T09:31:47.792Z,27.03
2023-04-15T09:34:22.203Z,26.30
2023-04-15T09:36:57.362Z,27.96
2023-04-15T09:39:46.440Z,27.16
2023-04-15T09:42:25.306Z,27.43
2023-04-15T09:45:09.545Z,26.91
2023-04-15T09:47:43.793Z,26.56
2023-04-15T09:50:18.642Z,26.77
2023-04-15T09:52:52.306Z,26.50
2023-04-15T09:55:25.917Z,26.63
2023-04-15T09:58:01.234Z,27.07
2023-04-15T10:00:36.826Z,27.00
2023-04-15T10:03:11.800Z,26.65
2023-04-15T10:05:48.070Z,26.05
2023-04-15T10:08:25.131Z,26.01
2023-04-15T10:11:00.918Z,25.56
2023-04-15T10:13:38.306Z,25.88
2023-04-15T10:16:16.312Z,25.67
2023-04-15T10:18:55.472Z,25.41
2023-04-15T10:21:31.025Z,26.01
2023-04-15T10:24:06.540Z,26.43
2023-04-15T10:26:40.764Z,26.06
2023-04-15T10:29:16.870Z,25.31
2023-04-15T10:31:51.982Z,24.96
2023-04-15T10:34:27.246Z,25.46
2023-04-15T10:37:04.069Z,25.04
2023-04-15T10:39:43.576Z,25.32
2023-04-15T10:42:19.397Z,25.28
2023-04-15T10:44:57.897Z,25.84
2023-04-15T10:47:32.983Z,25.40
2023-04-15T10:50:08.870Z,24.98
2023-04-15T10:52:42.854Z,25.97
2023-04-15T10:55:20.872Z,25.78
2023-04-15T10:57:56.358Z,26.03
2023-04-15T11:00:33.433Z,25.30
2023-04-15T11:03:08.565Z,25.25
2023-04-15T11:05:53.392Z,25.86
2023-04-15T11:08:54.434Z,25.81
2023-04-15T11:12:05.340Z,25.84
2023-04-15T11:14:43.359Z,25.41
2023-04-15T11:17:29.500Z,25.12
2023-04-15T11:20:04.757Z,25.97
2023-04-15T11:22:39.005Z,25.21
2023-04-15T11:25:22.879Z,25.41
2023-04-15T11:27:57.921Z,25.01
2023-04-15T11:30:33.699Z,24.71
2023-04-15T11:33:12.340Z,25.33
2023-04-15T11:35:46.033Z,25.25
2023-04-15T11:38:20.015Z,25.27
2023-04-15T11:40:54.019Z,25.20
2023-04-15T11:43:28.636Z,25.04
2023-04-15T11:46:03.684Z,25.12
2023-04-15T11:48:43.668Z,25.38
2023-04-15T11:51:17.809Z,25.38
2023-04-15T11:53:52.434Z,24.66
2023-04-15T11:56:28.576Z,24.67
2023-04-15T11:59:04.123Z,24.86
2023-04-15T12:01:39.588Z,24.49
2023-04-15T12:04:15.136Z,24.67
2023-04-15T12:06:49.024Z,24.64
2023-04-15T12:09:22.150Z,24.50
2023-04-15T12:11:58.552Z,24.52
2023-04-15T12:14:33.099Z,24.27
2023-04-15T12:17:07.209Z,25.37
2023-04-15T12:19:43.458Z,25.47
2023-04-15T12:22:17.066Z,25.49
2023-04-15T12:24:57.292Z,25.68
2023-04-15T12:27:32.607Z,25.35
2023-04-15T12:30:07.106Z,25.14
2023-04-15T12:32:42.169Z,24.98
2023-04-15T12:35:19.569Z,24.88
2023-04-15T12:37:52.807Z,24.71
2023-04-15T12:40:26.013Z,25.16
2023-04-15T12:42:58.548Z,24.98
2023-04-15T12:45:31.892Z,24.98
2023-04-15T12:48:04.696Z,24.39
2023-04-15T12:50:38.835Z,24.96
2023-04-15T12:53:11.745Z,24.64
2023-04-15T12:55:44.977Z,25.15
2023-04-15T12:58:17.595Z,24.43
2023-04-15T13:00:50.841Z,25.14
2023-04-15T13:03:24.088Z,24.41
2023-04-15T13:05:58.478Z,24.82
2023-04-15T13:08:31.305Z,24.57
2023-04-15T13:11:04.390Z,24.90
2023-04-15T13:13:37.320Z,25.03
2023-04-15T13:16:10.554Z,24.79
2023-04-15T13:18:43.620Z,24.00
2023-04-15T13:21:18.652Z,24.32
2023-04-15T13:23:51.695Z,24.34
2023-04-15T13:26:24.624Z,24.54
2023-04-15T13:28:57.897Z,24.12
2023-04-15T13:31:30.935Z,24.48
2023-04-15T13:34:04.083Z,24.82
2023-04-15T13:36:38.281Z,24.45
2023-04-15T13:39:11.506Z,24.82
2023-04-15T13:41:44.475Z,24.76
2023-04-15T13:44:17.060Z,24.96
2023-04-15T13:46:53.186Z,25.38
2023-04-15T13:49:26.026Z,24.96
2023-04-15T13:52:00.424Z,24.37
2023-04-15T13:54:37.022Z,24.43
2023-04-15T13:57:11.070Z,24.80
2023-04-15T13:59:44.676Z,25.06
2023-04-15T14:02:17.727Z,24.60
2023-04-15T14:04:50.626Z,24.94
2023-04-15T14:07:25.199Z,24.33
2023-04-15T14:09:58.089Z,24.33
2023-04-15T14:12:31.665Z,24.19
2023-04-15T14:15:05.624Z,24.31
2023-04-15T14:17:38.881Z,24.26
2023-04-15T14:20:13.533Z,24.19
2023-04-15T14:22:48.502Z,24.24
2023-04-15T14:25:32.829Z,24.83
2023-04-15T14:28:06.246Z,24.82
2023-04-15T14:30:39.377Z,24.10
2023-04-15T14:33:11.919Z,24.84
2023-04-15T14:35:45.450Z,24.57
2023-04-15T14:38:19.365Z,25.30
2023-04-15T14:40:52.253Z,24.84
2023-04-15T14:43:24.841Z,24.32
2023-04-15T14:45:58.534Z,25.02
2023-04-15T14:48:32.049Z,24.50
2023-04-15T14:51:05.195Z,24.55
2023-04-15T14:53:39.789Z,24.69
2023-04-15T14:56:12.987Z,24.95
2023-04-15T14:58:45.582Z,24.48
2023-04-15T15:01:18.597Z,24.49
2023-04-15T15:03:51.581Z,25.20
2023-04-15T15:06:24.839Z,24.91
2023-04-15T15:08:58.901Z,24.80
2023-04-15T15:11:32.329Z,25.17
2023-04-15T15:14:05.000Z,25.12
2023-04-15T15:16:38.184Z,24.96
2023-04-15T15:19:11.216Z,24.65
2023-04-15T15:21:44.138Z,24.44
2023-04-15T15:24:18.078Z,24.48
2023-04-15T15:26:51.328Z,25.13
2023-04-15T15:29:23.987Z,24.72
2023-04-15T15:31:57.136Z,25.05
2023-04-15T15:34:29.796Z,25.19
2023-04-15T15:37:02.701Z,24.74
2023-04-15T15:39:37.187Z,24.75
2023-04-15T15:42:09.853Z,25.25
2023-04-15T15:44:42.663Z,25.22
2023-04-15T15:47:16.553Z,24.96
2023-04-15T15:49:49.283Z,25.53
2023-04-15T15:52:22.785Z,25.33
2023-04-15T15:54:56.855Z,25.60
2023-04-15T15:57:30.417Z,25.18
2023-04-15T16:05:21.229Z,25.78
2023-04-15T16:07:53.768Z,25.44
2023-04-15T16:10:30.849Z,25.65
2023-04-15T16:13:05.054Z,25.83
2023-04-15T16:15:38.106Z,25.44
2023-04-15T16:18:10.577Z,25.62
2023-04-15T16:20:43.504Z,25.27
2023-04-15T16:23:17.347Z,25.88
2023-04-15T16:25:52.205Z,26.06
2023-04-15T16:28:27.218Z,26.40
2023-04-15T16:31:00.250Z,26.05
2023-04-15T16:33:33.446Z,25.88
2023-04-15T16:36:06.275Z,26.32
2023-04-15T16:38:39.152Z,25.96
2023-04-15T16:41:13.505Z,26.38
2023-04-15T16:43:46.884Z,27.00
2023-04-15T16:46:20.194Z,26.22
2023-04-15T16:48:53.097Z,26.22
2023-04-15T16:51:27.088Z,26.75
2023-04-15T16:53:59.709Z,27.31
2023-04-15T16:56:34.181Z,27.50
2023-04-15T16:59:08.518Z,26.86
2023-04-15T17:01:41.554Z,27.13
2023-04-15T17:04:14.559Z,27.12
2023-04-15T17:06:47.893Z,27.24
2023-04-15T17:09:20.598Z,27.50
2023-04-15T17:11:55.352Z,27.29
2023-04-15T17:14:28.716Z,27.23
2023-04-15T17:17:02.391Z,27.87
2023-04-15T17:19:42.278Z,27.44
2023-04-15T17:22:23.648Z,27.27
2023-04-15T17:24:57.369Z,27.18
2023-04-15T17:27:33.347Z,27.25
2023-04-15T17:30:13.858Z,27.58
2023-04-15T17:33:50.561Z,28.32
2023-04-15T17:36:20.113Z,27.57
2023-04-15T17:39:14.240Z,28.90
2023-04-15T17:41:46.972Z,28.31
2023-04-15T17:44:41.363Z,28.84
2023-04-15T17:47:34.146Z,29.17
2023-04-15T17:50:27.018Z,29.03
2023-04-15T17:53:19.776Z,29.33
2023-04-15T17:56:12.526Z,28.98
2023-04-15T17:59:06.801Z,29.43
2023-04-15T18:02:01.555Z,29.80
2023-04-15T18:04:54.496Z,30.45
2023-04-15T18:07:47.039Z,30.66
2023-04-15T18:10:39.959Z,30.46
2023-04-15T18:13:32.704Z,30.80
2023-04-15T18:16:26.827Z,31.51
2023-04-15T18:19:23.254Z,30.54
2023-04-15T18:21:56.486Z,31.29
2023-04-15T18:24:29.356Z,31.03
2023-04-15T18:27:02.958Z,30.56
2023-04-15T18:29:36.613Z,31.07
2023-04-15T18:32:09.515Z,30.70
2023-04-15T18:34:43.751Z,30.74
2023-04-15T18:37:16.887Z,30.65
2023-04-15T18:39:49.351Z,31.18
2023-04-15T18:42:22.663Z,30.89
2023-04-15T18:44:55.742Z,30.60
2023-04-15T18:47:28.961Z,30.08
2023-04-15T18:50:03.200Z,31.26
2023-04-15T18:52:36.914Z,30.97
2023-04-15T18:55:09.610Z,31.17
2023-04-15T18:57:44.985Z,30.78
2023-04-15T19:00:18.264Z,30.80
2023-04-15T19:02:51.853Z,31.17
2023-04-15T19:05:26.318Z,30.45
2023-04-15T19:08:02.284Z,30.44
2023-04-15T19:10:35.595Z,30.54
2023-04-15T19:13:08.844Z,30.75
2023-04-15T19:15:41.481Z,30.59
2023-04-15T19:18:14.034Z,30.87
2023-04-15T19:20:50.386Z,30.99
2023-04-15T19:23:24.213Z,30.96
2023-04-15T19:25:57.508Z,31.04
2023-04-15T19:28:30.905Z,30.64
2023-04-15T19:31:03.523Z,30.57
2023-04-15T19:33:36.719Z,31.54
2023-04-15T19:36:10.862Z,31.25
2023-04-15T19:38:44.024Z,30.71
2023-04-15T19:41:16.425Z,31.41
2023-04-15T19:43:49.310Z,31.96
2023-04-15T19:46:22.061Z,32.50
2023-04-15T19:48:55.555Z,33.41
2023-04-15T19:51:29.815Z,33.83
2023-04-15T19:54:02.802Z,34.12
2023-04-15T19:56:36.014Z,34.66
2023-04-15T19:59:09.270Z,35.17
2023-04-15T20:01:42.780Z,35.85
2023-04-15T20:04:15.952Z,35.81
2023-04-15T20:06:50.589Z,35.76
2023-04-15T20:09:23.084Z,36.23
2023-04-15T20:12:47.215Z,36.63
2023-04-15T20:14:49.751Z,37.27
2023-04-15T20:17:22.940Z,36.33
2023-04-15T20:19:55.484Z,37.08
2023-04-15T20:22:30.248Z,35.68
2023-04-15T20:25:03.843Z,36.05
2023-04-15T20:27:37.498Z,35.81
2023-04-15T20:30:11.067Z,37.04
2023-04-15T20:32:43.715Z,36.68
2023-04-15T20:35:16.898Z,37.86
2023-04-15T20:37:51.415Z,38.63
2023-04-15T20:40:23.990Z,38.42
2023-04-15T20:42:56.781Z,39.18
2023-04-15T20:45:29.357Z,39.49
2023-04-15T20:48:02.646Z,39.55
2023-04-15T20:50:35.204Z,40.07
2023-04-15T20:53:09.702Z,40.76
2023-04-15T20:55:43.700Z,41.16
2023-04-15T20:58:16.908Z,41.63
2023-04-15T21:00:50.370Z,41.54
2023-04-15T21:03:23.107Z,40.48
2023-04-15T21:05:56.315Z,39.21
2023-04-15T21:08:31.660Z,38.91
2023-04-15T21:11:04.789Z,38.26
2023-04-15T21:13:37.695Z,38.53
2023-04-15T21:16:10.414Z,37.57
2023-04-15T21:18:42.898Z,37.27
2023-04-15T21:21:16.233Z,37.24
2023-04-15T21:23:50.390Z,36.82
2023-04-15T21:26:22.852Z,35.62
2023-04-15T21:28:55.429Z,35.70
2023-04-15T21:31:28.244Z,35.51
2023-04-15T21:34:01.316Z,35.68
2023-04-15T21:36:34.092Z,34.94
2023-04-15T21:39:08.572Z,35.53
2023-04-15T21:41:41.180Z,35.40
2023-04-15T21:44:15.088Z,35.04
2023-04-15T21:46:47.777Z,34.27
2023-04-15T21:49:21.840Z,34.46
2023-04-15T21:51:55.248Z,34.65
2023-04-15T21:54:29.324Z,34.16
2023-04-15T21:57:02.254Z,34.91
2023-04-15T21:59:35.518Z,34.21
2023-04-15T22:02:08.141Z,34.31
2023-04-15T22:04:41.201Z,33.78
2023-04-15T22:07:14.259Z,34.09
2023-04-15T22:09:50.631Z,34.25
2023-04-15T22:12:25.903Z,33.64
2023-04-15T22:14:58.894Z,33.66
2023-04-15T22:17:31.726Z,34.41
2023-04-15T22:20:05.532Z,34.68
2023-04-15T22:22:44.208Z,35.13
2023-04-15T22:25:19.496Z,34.50
2023-04-15T22:27:53.393Z,33.84
2023-04-15T22:30:26.582Z,33.66
2023-04-15T22:33:02.577Z,34.24
2023-04-15T22:35:39.097Z,34.03
2023-04-15T22:38:15.582Z,33.72
2023-04-15T22:40:58.510Z,33.64
2023-04-15T22:43:31.724Z,33.66
2023-04-15T22:46:04.515Z,34.25
2023-04-15T22:48:37.685Z,33.92
2023-04-15T22:51:10.282Z,34.32
2023-04-15T22:53:43.367Z,35.54
2023-04-15T22:56:18.754Z,34.74
2023-04-15T22:58:51.822Z,34.18
2023-04-15T23:01:25.055Z,35.16
2023-04-15T23:04:04.030Z,35.34
2023-04-15T23:06:41.131Z,35.24
2023-04-15T23:09:14.092Z,35.45
2023-04-15T23:11:50.304Z,34.68
2023-04-15T23:14:22.788Z,35.17
2023-04-15T23:16:57.516Z,34.42
2023-04-15T23:19:30.398Z,34.51
2023-04-15T23:22:03.618Z,34.03
2023-04-15T23:24:36.675Z,34.65
2023-04-15T23:27:10.983Z,34.29
2023-04-15T23:29:43.881Z,34.91
2023-04-15T23:32:17.155Z,34.59
2023-04-15T23:34:52.426Z,34.24
2023-04-15T23:37:25.554Z,34.67
2023-04-15T23:39:58.516Z,34.14
2023-04-15T23:42:32.755Z,34.59
2023-04-15T23:45:06.167Z,34.73
2023-04-15T23:47:39.267Z,34.82
2023-04-15T23:50:12.427Z,34.53
2023-04-15T23:52:45.058Z,34.07
2023-04-15T23:55:18.474Z,34.12
2023-04-15T23:57:54.318Z,34.07
